createdAt,value
2022-09-23T00:00:01.414Z,1.285
2022-09-23T00:05:01.270Z,1.276
2022-09-23T00:10:01.260Z,1.2590000000000001
2022-09-23T00:15:01.373Z,1.215
2022-09-23T00:20:01.318Z,1.158
2022-09-23T00:25:01.321Z,1.163
2022-09-23T00:30:01.259Z,1.174
2022-09-23T00:35:01.503Z,1.22
2022-09-23T00:40:01.360Z,1.204
2022-09-23T00:45:01.282Z,1.19
2022-09-23T00:50:01.315Z,1.064
2022-09-23T00:55:01.462Z,0.527
2022-09-23T01:00:01.351Z,0.08
2022-09-23T01:05:01.396Z,0
2022-09-23T01:10:01.338Z,0
2022-09-23T01:15:01.823Z,0
2022-09-23T01:20:01.335Z,0.258
2022-09-23T01:25:01.378Z,0.595
2022-09-23T01:30:01.518Z,0.417
2022-09-23T01:35:01.311Z,0.10400000000000001
2022-09-23T01:40:01.406Z,0.107
2022-09-23T01:45:01.626Z,0.134
2022-09-23T01:50:01.575Z,0.156
2022-09-23T01:55:01.361Z,0.149
2022-09-23T02:00:01.349Z,0.132
2022-09-23T02:05:01.612Z,0.094
2022-09-23T02:10:01.358Z,0.097
2022-09-23T02:15:01.371Z,0.096
2022-09-23T02:20:01.371Z,0.106
2022-09-23T02:25:01.544Z,0.109
2022-09-23T02:30:01.637Z,0.136
2022-09-23T02:35:01.409Z,0.156
2022-09-23T02:40:01.364Z,0.157
2022-09-23T02:45:01.554Z,0.123
2022-09-23T02:50:01.443Z,0.092
2022-09-23T02:55:01.480Z,0.023
2022-09-23T03:00:01.460Z,0
2022-09-23T03:05:01.645Z,0
2022-09-23T03:10:01.400Z,0
2022-09-23T03:15:01.421Z,0
2022-09-23T03:20:01.459Z,0.124
2022-09-23T03:25:01.656Z,0.14400000000000002
2022-09-23T03:30:01.462Z,0.131
2022-09-23T03:35:01.435Z,0.11
2022-09-23T03:40:01.408Z,0.111
2022-09-23T03:45:01.745Z,0.106
2022-09-23T03:50:01.466Z,0.108
2022-09-23T03:55:01.712Z,0.105
2022-09-23T04:00:01.464Z,0.147
2022-09-23T04:05:01.615Z,0.15
2022-09-23T04:10:01.456Z,0.145
2022-09-23T04:15:01.498Z,0.116
2022-09-23T04:20:01.485Z,0.096
2022-09-23T04:25:01.663Z,0.096
2022-09-23T04:30:01.488Z,0.10200000000000001
2022-09-23T04:35:01.458Z,0.10300000000000001
2022-09-23T04:40:01.711Z,0.08700000000000001
2022-09-23T04:45:01.666Z,0
2022-09-23T04:50:01.551Z,0
2022-09-23T04:55:01.769Z,0
2022-09-23T05:00:01.566Z,0.025
2022-09-23T05:05:01.654Z,0.092
2022-09-23T05:10:01.746Z,0.157
2022-09-23T05:15:01.493Z,19.423000000000002
2022-09-23T05:20:01.569Z,26.947
2022-09-23T05:25:01.804Z,26.17
2022-09-23T05:30:01.701Z,36.016
2022-09-23T05:35:01.546Z,45.036
2022-09-23T05:40:01.585Z,74.106
2022-09-23T05:45:01.552Z,102.09400000000001
2022-09-23T05:50:01.710Z,140.637
2022-09-23T05:55:01.557Z,181.33
2022-09-23T06:00:01.547Z,212.407
2022-09-23T06:05:01.636Z,243.4
2022-09-23T06:10:02.065Z,324.295
2022-09-23T06:15:01.544Z,397.307
2022-09-23T06:20:01.576Z,461.211
2022-09-23T06:25:01.602Z,538.7
2022-09-23T06:30:01.711Z,628.519
2022-09-23T06:35:01.576Z,773.989
2022-09-23T06:40:01.620Z,801.543
2022-09-23T06:45:01.609Z,769.336
2022-09-23T06:50:01.753Z,727.336
2022-09-23T06:55:01.580Z,658.0980000000001
2022-09-23T07:00:01.639Z,566.0790000000001
2022-09-23T07:05:01.617Z,452.958
2022-09-23T07:10:02.002Z,419.27500000000003
2022-09-23T07:15:01.796Z,440.91700000000003
2022-09-23T07:20:01.628Z,456.224
2022-09-23T07:25:01.611Z,492.264
2022-09-23T07:30:01.869Z,533.688
2022-09-23T07:35:02.050Z,523.996
2022-09-23T07:40:01.653Z,526.63
2022-09-23T07:45:01.621Z,615.814
2022-09-23T07:50:01.672Z,902.899
2022-09-23T07:55:02.063Z,1309.986
2022-09-23T08:00:01.661Z,1622.588
2022-09-23T08:05:01.639Z,1960.6860000000001
2022-09-23T08:10:01.679Z,2174.609
2022-09-23T08:15:01.809Z,2683.041
2022-09-23T08:20:01.703Z,2639.0950000000003
2022-09-23T08:25:01.694Z,2707.2000000000003
2022-09-23T08:30:01.732Z,2780.971
2022-09-23T08:35:01.873Z,2581.502
2022-09-23T08:40:01.952Z,2528.2980000000002
2022-09-23T08:45:01.698Z,2150.064
2022-09-23T08:50:01.774Z,1953.528
2022-09-23T08:55:01.753Z,2034.68
2022-09-23T09:00:01.674Z,2243.809
2022-09-23T09:05:01.726Z,2829.939
2022-09-23T09:10:01.718Z,2860.476
2022-09-23T09:15:01.762Z,2606.281
2022-09-23T09:20:02.042Z,2917.799
2022-09-23T09:25:01.774Z,3539.178
2022-09-23T09:30:01.761Z,3286.794
2022-09-23T09:35:01.730Z,2676.205
2022-09-23T09:40:01.914Z,2439.733
2022-09-23T09:45:01.759Z,2563.946
2022-09-23T09:50:01.847Z,3374.1530000000002
2022-09-23T09:55:01.706Z,4312.658
2022-09-23T10:00:01.969Z,3975.3830000000003
2022-09-23T10:05:01.693Z,3917.915
2022-09-23T10:10:15.870Z,3054.739
2022-09-23T10:15:01.713Z,2948.198
2022-09-23T10:20:02.015Z,3673.737
2022-09-23T10:25:01.702Z,4193.095
2022-09-23T10:30:01.836Z,4182.448
2022-09-23T10:35:01.769Z,3760.7580000000003
2022-09-23T10:40:01.826Z,2902.815
2022-09-23T10:45:01.976Z,2726.721
2022-09-23T10:50:02.807Z,3139.538
2022-09-23T10:55:01.777Z,3186.497
2022-09-23T11:00:01.905Z,4293.698
2022-09-23T11:05:01.816Z,4113.802
2022-09-23T11:10:01.754Z,3523.727
2022-09-23T11:15:01.826Z,3198.098
2022-09-23T11:20:01.908Z,4196.009
2022-09-23T11:25:01.797Z,4807.233
2022-09-23T11:30:01.839Z,5076.584
2022-09-23T11:35:01.788Z,4797.215
2022-09-23T11:40:01.856Z,4761.917
2022-09-23T11:45:02.032Z,6040.475
2022-09-23T11:50:01.883Z,6069.427
2022-09-23T11:55:04.227Z,4688.543
2022-09-23T12:00:02.326Z,4415.125
2022-09-23T12:05:02.010Z,4405.744
2022-09-23T12:25:02.073Z,3899.2760000000003
2022-09-23T12:30:01.873Z,5172.546
2022-09-23T12:35:01.866Z,4781.537
2022-09-23T12:40:02.048Z,4641.4710000000005
2022-09-23T12:45:01.947Z,4360.367
2022-09-23T12:50:02.049Z,4521.2080000000005
2022-09-23T12:55:01.908Z,3772.3430000000003
2022-09-23T13:00:02.023Z,3215.014
2022-09-23T13:05:01.903Z,3664.0170000000003
2022-09-23T13:10:02.042Z,3998.674
2022-09-23T13:15:02.036Z,3035.3360000000002
2022-09-23T13:20:02.117Z,3581.9970000000003
2022-09-23T13:25:01.903Z,3271.027
2022-09-23T13:30:01.926Z,2455.301
2022-09-23T13:35:01.976Z,2564.398
2022-09-23T13:40:02.172Z,3192.452
2022-09-23T13:45:01.917Z,2435.62
2022-09-23T13:50:01.972Z,1776.396
2022-09-23T13:55:02.065Z,1703.174
2022-09-23T14:00:02.250Z,1637.729
2022-09-23T14:05:01.943Z,1481.749
2022-09-23T14:10:01.940Z,1358.818
2022-09-23T14:15:02.197Z,1399.429
2022-09-23T14:20:01.972Z,1275.342
2022-09-23T14:25:02.081Z,1442.926
2022-09-23T14:30:01.987Z,1393.741
2022-09-23T14:35:02.084Z,1297.303
2022-09-23T14:40:02.000Z,1106.405
2022-09-23T14:45:02.028Z,869.8430000000001
2022-09-23T14:50:02.008Z,612.831
2022-09-23T14:55:02.069Z,446.967
2022-09-23T15:00:02.209Z,816.601
2022-09-23T15:05:01.993Z,1135.679
2022-09-23T15:10:02.003Z,1221.8410000000001
2022-09-23T15:15:02.040Z,1339.887
2022-09-23T15:20:02.217Z,816.422
2022-09-23T15:25:02.026Z,523.5790000000001
2022-09-23T15:30:02.040Z,250.452
2022-09-23T15:35:02.024Z,119.33200000000001
2022-09-23T15:40:02.204Z,168.19400000000002
2022-09-23T15:45:02.048Z,172.66
2022-09-23T15:50:02.105Z,193.01
2022-09-23T15:55:02.093Z,228.933
2022-09-23T16:00:02.164Z,252.644
2022-09-23T16:05:02.087Z,227.24
2022-09-23T16:10:02.160Z,168.931
2022-09-23T16:15:02.074Z,103.776
2022-09-23T16:20:02.143Z,43.809
2022-09-23T16:25:02.373Z,14.372
2022-09-23T16:30:02.158Z,23.827
2022-09-23T16:35:02.095Z,29.51
2022-09-23T16:40:02.165Z,25.968
2022-09-23T16:45:02.259Z,31.219
2022-09-23T16:50:02.381Z,25.267
2022-09-23T16:55:02.101Z,25.806
2022-09-23T17:00:02.118Z,5.333
2022-09-23T17:05:02.247Z,0.076
2022-09-23T17:10:02.146Z,0.042
2022-09-23T17:15:02.193Z,0.016
2022-09-23T17:20:02.174Z,0.026000000000000002
2022-09-23T17:25:02.175Z,0.075
2022-09-23T17:30:02.364Z,0.064
2022-09-23T17:35:02.157Z,0.065
2022-09-23T17:40:02.137Z,0.029
2022-09-23T17:45:02.173Z,0.009000000000000001
2022-09-23T17:50:02.281Z,0.009000000000000001
2022-09-23T17:55:02.269Z,0.011
2022-09-23T18:00:02.179Z,0.002
2022-09-23T18:05:02.317Z,0.011
2022-09-23T18:10:02.176Z,0.17500000000000002
2022-09-23T18:15:02.399Z,0.268
2022-09-23T18:20:02.184Z,0.053
2022-09-23T18:25:09.381Z,0.009000000000000001
2022-09-23T18:30:02.197Z,0.009000000000000001
2022-09-23T18:35:02.377Z,0.01
2022-09-23T18:40:02.193Z,0.009000000000000001
2022-09-23T18:45:02.194Z,0.01
2022-09-23T18:50:02.185Z,0.024
2022-09-23T18:55:02.326Z,0.115
2022-09-23T19:00:02.434Z,0.124
2022-09-23T19:05:02.255Z,0.121
2022-09-23T19:10:02.300Z,0.095
2022-09-23T19:15:02.353Z,0.074
2022-09-23T19:20:02.369Z,0.109
2022-09-23T19:25:02.263Z,0.11
2022-09-23T19:30:02.250Z,0.107
2022-09-23T19:35:02.282Z,0.114
2022-09-23T19:40:02.614Z,0.162
2022-09-23T19:45:02.429Z,0.17300000000000001
2022-09-23T19:50:02.433Z,0.17500000000000002
2022-09-23T19:55:02.421Z,0.135
2022-09-23T20:00:02.323Z,0.124
2022-09-23T20:05:02.477Z,0.122
2022-09-23T20:10:02.315Z,0.123
2022-09-23T20:15:02.272Z,0.123
2022-09-23T20:20:02.338Z,0.127
2022-09-23T20:25:02.430Z,0.17
2022-09-23T20:30:02.521Z,0.169
2022-09-23T20:35:02.478Z,0.168
2022-09-23T20:40:02.292Z,0.13
2022-09-23T20:45:02.351Z,0.11800000000000001
2022-09-23T20:50:02.464Z,0.116
2022-09-23T20:55:02.353Z,0.116
2022-09-23T21:00:02.318Z,0.128
2022-09-23T21:05:02.330Z,0.139
2022-09-23T21:10:02.630Z,0.11800000000000001
2022-09-23T21:15:02.365Z,0
2022-09-23T21:20:02.444Z,0
2022-09-23T21:25:27.218Z,0
2022-09-23T21:30:02.475Z,0.005
2022-09-23T21:35:02.545Z,0.121
2022-09-23T21:40:02.355Z,0.133
2022-09-23T21:45:02.380Z,0.135
2022-09-23T21:50:02.371Z,0.136
2022-09-23T21:55:02.578Z,0.187
2022-09-23T22:00:02.420Z,0.184
2022-09-23T22:05:02.377Z,0.18
2022-09-23T22:10:02.448Z,0.145
2022-09-23T22:15:02.501Z,0.134
2022-09-23T22:20:02.620Z,0.12
2022-09-23T22:25:02.416Z,0.123
2022-09-23T22:30:02.403Z,0.125
2022-09-23T22:35:02.405Z,0.121
2022-09-23T22:40:02.623Z,0.169
2022-09-23T22:45:02.397Z,0.168
2022-09-23T22:50:02.411Z,0.168
2022-09-23T22:55:02.442Z,0.127
2022-09-23T23:00:02.596Z,0.136
2022-09-23T23:05:02.448Z,0.136
2022-09-23T23:10:02.535Z,0.128
2022-09-23T23:15:02.423Z,0.124
2022-09-23T23:20:02.472Z,0.129
2022-09-23T23:25:02.767Z,0.17200000000000001
2022-09-23T23:30:02.465Z,0.171
2022-09-23T23:35:02.467Z,0.179
2022-09-23T23:40:02.605Z,0.155
2022-09-23T23:45:02.660Z,0.135
2022-09-23T23:50:02.478Z,0.135
2022-09-23T23:55:02.542Z,0.135
